createdAt,value
2022-11-07T00:01:58.138Z,10.40
2022-11-07T00:04:25.538Z,9.00
2022-11-07T00:06:53.836Z,10.40
2022-11-07T00:09:21.466Z,8.70
2022-11-07T00:11:49.120Z,9.90
2022-11-07T00:14:17.822Z,10.30
2022-11-07T00:16:46.530Z,9.10
2022-11-07T00:19:19.327Z,7.60
2022-11-07T00:21:47.563Z,10.00
2022-11-07T00:24:17.977Z,7.80
2022-11-07T00:26:46.580Z,8.00
2022-11-07T00:29:15.576Z,9.40
2022-11-07T00:31:44.224Z,9.30
2022-11-07T00:34:11.501Z,9.10
2022-11-07T00:36:39.250Z,6.80
2022-11-07T00:39:07.343Z,8.70
2022-11-07T00:41:35.699Z,8.70
2022-11-07T00:44:03.063Z,8.20
2022-11-07T00:46:31.542Z,10.20
2022-11-07T00:48:58.902Z,8.00
2022-11-07T00:51:28.200Z,9.70
2022-11-07T00:53:56.279Z,7.60
2022-11-07T00:56:25.647Z,9.60
2022-11-07T00:59:00.290Z,7.20
2022-11-07T01:01:29.997Z,9.30
2022-11-07T01:04:16.818Z,10.20
2022-11-07T01:06:45.100Z,8.40
2022-11-07T01:09:15.616Z,9.40
2022-11-07T01:11:43.271Z,8.20
2022-11-07T01:14:12.103Z,10.40
2022-11-07T01:16:39.912Z,8.40
2022-11-07T01:19:08.304Z,8.50
2022-11-07T01:21:38.121Z,9.00
2022-11-07T01:24:06.987Z,7.50
2022-11-07T01:26:34.578Z,7.40
2022-11-07T01:29:02.038Z,8.10
2022-11-07T01:31:31.740Z,7.60
2022-11-07T01:34:00.737Z,6.80
2022-11-07T01:36:28.177Z,8.70
2022-11-07T01:38:55.941Z,7.50
2022-11-07T01:41:26.830Z,7.10
2022-11-07T01:44:02.274Z,6.50
2022-11-07T01:46:32.353Z,7.40
2022-11-07T01:49:13.035Z,5.80
2022-11-07T01:51:54.287Z,7.40
2022-11-07T01:54:25.348Z,6.00
2022-11-07T01:56:53.702Z,7.10
2022-11-07T01:59:23.513Z,6.40
2022-11-07T02:01:50.950Z,6.70
2022-11-07T02:04:19.274Z,6.00
2022-11-07T02:06:55.026Z,6.10
2022-11-07T02:09:22.478Z,6.00
2022-11-07T02:11:49.727Z,4.90
2022-11-07T02:14:18.002Z,5.50
2022-11-07T02:16:46.461Z,7.70
2022-11-07T02:19:30.418Z,6.10
2022-11-07T02:22:04.029Z,5.40
2022-11-07T02:24:33.918Z,6.80
2022-11-07T02:27:04.975Z,5.10
2022-11-07T02:29:33.038Z,6.10
2022-11-07T02:32:04.959Z,5.10
2022-11-07T02:34:32.146Z,5.40
2022-11-07T02:37:01.769Z,5.70
2022-11-07T02:39:29.316Z,5.00
2022-11-07T02:41:57.997Z,4.70
2022-11-07T02:44:26.178Z,3.80
2022-11-07T02:46:53.421Z,5.60
2022-11-07T02:49:20.468Z,6.60
2022-11-07T02:51:48.858Z,5.00
2022-11-07T02:54:16.010Z,5.60
2022-11-07T02:56:44.501Z,6.20
2022-11-07T02:59:11.724Z,6.60
2022-11-07T03:01:39.165Z,7.30
2022-11-07T03:04:06.764Z,6.50
2022-11-07T03:06:33.790Z,6.00
2022-11-07T03:09:00.958Z,5.70
2022-11-07T03:11:28.317Z,5.50
2022-11-07T03:13:57.409Z,6.40
2022-11-07T03:16:24.539Z,6.40
2022-11-07T03:18:51.791Z,7.00
2022-11-07T03:21:20.179Z,6.90
2022-11-07T03:23:47.628Z,6.40
2022-11-07T03:26:14.807Z,7.20
2022-11-07T03:28:42.341Z,7.90
2022-11-07T03:31:09.597Z,8.60
2022-11-07T03:33:37.876Z,6.80
2022-11-07T03:36:05.655Z,7.10
2022-11-07T03:38:32.798Z,8.00
2022-11-07T03:41:00.138Z,7.40
2022-11-07T03:43:27.399Z,8.20
2022-11-07T03:45:54.757Z,7.20
2022-11-07T03:48:22.116Z,8.00
2022-11-07T03:50:49.344Z,8.20
2022-11-07T03:53:19.432Z,8.20
2022-11-07T03:55:51.338Z,6.50
2022-11-07T03:58:18.598Z,6.50
2022-11-07T04:00:45.941Z,6.10
2022-11-07T04:03:13.207Z,5.30
2022-11-07T04:05:40.534Z,6.30
2022-11-07T04:08:07.697Z,6.30
2022-11-07T04:10:35.060Z,5.80
2022-11-07T04:13:21.038Z,6.00
2022-11-07T04:16:07.544Z,6.50
2022-11-07T04:18:34.691Z,5.90
2022-11-07T04:21:01.865Z,5.90
2022-11-07T04:23:29.299Z,4.80
2022-11-07T04:26:15.518Z,4.60
2022-11-07T04:28:42.747Z,5.00
2022-11-07T04:31:10.418Z,5.20
2022-11-07T04:33:37.778Z,5.20
2022-11-07T04:36:05.118Z,4.80
2022-11-07T04:38:32.477Z,8.20
2022-11-07T04:40:59.720Z,5.90
2022-11-07T04:43:28.820Z,6.20
2022-11-07T04:45:56.179Z,5.80
2022-11-07T04:48:23.797Z,5.80
2022-11-07T04:50:51.288Z,6.10
2022-11-07T04:53:19.245Z,5.80
2022-11-07T04:55:47.157Z,6.10
2022-11-07T04:58:14.405Z,6.70
2022-11-07T05:00:41.744Z,5.90
2022-11-07T05:03:09.471Z,6.40
2022-11-07T05:05:36.736Z,6.20
2022-11-07T05:08:04.202Z,6.40
2022-11-07T05:10:31.343Z,6.80
2022-11-07T05:12:58.715Z,5.90
2022-11-07T05:15:26.060Z,6.60
2022-11-07T05:17:53.218Z,6.20
2022-11-07T05:20:38.504Z,7.10
2022-11-07T05:23:16.298Z,6.90
2022-11-07T05:25:49.896Z,6.60
2022-11-07T05:28:35.280Z,6.60
2022-11-07T05:31:06.917Z,6.70
2022-11-07T05:33:34.392Z,6.10
2022-11-07T05:36:19.611Z,6.50
2022-11-07T05:38:49.407Z,6.30
2022-11-07T05:41:18.072Z,7.10
2022-11-07T05:43:46.920Z,6.80
2022-11-07T05:46:14.580Z,5.90
2022-11-07T05:48:41.831Z,6.90
2022-11-07T05:51:09.401Z,7.00
2022-11-07T05:53:36.621Z,7.00
2022-11-07T05:56:04.417Z,7.00
2022-11-07T05:58:31.683Z,6.90
2022-11-07T06:01:03.854Z,7.80
2022-11-07T06:03:31.587Z,6.50
2022-11-07T06:05:59.682Z,6.60
2022-11-07T06:08:27.840Z,6.70
2022-11-07T06:10:54.987Z,6.50
2022-11-07T06:13:22.549Z,5.70
2022-11-07T06:15:49.817Z,6.60
2022-11-07T06:18:19.290Z,6.50
2022-11-07T06:20:46.783Z,6.50
2022-11-07T06:23:14.587Z,7.20
2022-11-07T06:25:42.524Z,7.30
2022-11-07T06:28:11.908Z,7.10
2022-11-07T06:30:40.377Z,7.00
2022-11-07T06:33:11.399Z,6.80
2022-11-07T06:35:38.787Z,6.70
2022-11-07T06:38:10.640Z,6.60
2022-11-07T06:40:39.110Z,7.40
2022-11-07T06:43:14.595Z,7.20
2022-11-07T06:45:43.048Z,6.90
2022-11-07T06:48:11.338Z,6.60
2022-11-07T06:50:39.407Z,7.00
2022-11-07T06:53:11.722Z,7.00
2022-11-07T06:55:39.839Z,6.40
2022-11-07T06:58:07.923Z,6.70
2022-11-07T07:00:37.392Z,6.80
2022-11-07T07:03:05.905Z,6.70
2022-11-07T07:05:34.908Z,6.30
2022-11-07T07:08:03.385Z,6.20
2022-11-07T07:10:30.798Z,6.90
2022-11-07T07:12:58.076Z,6.20
2022-11-07T07:15:25.636Z,6.40
2022-11-07T07:17:52.999Z,6.00
2022-11-07T07:20:20.226Z,5.90
2022-11-07T07:22:55.320Z,6.50
2022-11-07T07:25:25.992Z,5.50
2022-11-07T07:27:53.637Z,6.00
2022-11-07T07:30:22.049Z,6.50
2022-11-07T07:32:49.399Z,6.10
2022-11-07T07:35:17.697Z,6.30
2022-11-07T07:37:49.219Z,5.40
2022-11-07T07:40:17.142Z,5.90
2022-11-07T07:42:45.377Z,6.10
2022-11-07T07:45:14.235Z,5.60
2022-11-07T07:47:41.803Z,6.10
2022-11-07T07:50:11.087Z,5.60
2022-11-07T07:52:38.363Z,5.10
2022-11-07T07:55:09.413Z,7.10
2022-11-07T07:57:41.462Z,6.60
2022-11-07T08:00:10.168Z,5.80
2022-11-07T08:02:43.939Z,5.80
2022-11-07T08:05:13.060Z,6.60
2022-11-07T08:07:51.479Z,6.80
2022-11-07T08:10:41.029Z,5.40
2022-11-07T08:13:07.572Z,6.20
2022-11-07T08:15:36.068Z,4.80
2022-11-07T08:18:04.546Z,6.10
2022-11-07T08:20:32.060Z,5.20
2022-11-07T08:23:04.578Z,6.20
2022-11-07T08:25:32.137Z,5.80
2022-11-07T08:27:59.922Z,5.50
2022-11-07T08:30:32.771Z,5.40
2022-11-07T08:33:02.621Z,5.10
2022-11-07T08:35:30.972Z,5.10
2022-11-07T08:37:59.153Z,5.80
2022-11-07T08:40:27.120Z,5.50
2022-11-07T08:42:59.894Z,5.30
2022-11-07T08:45:27.160Z,5.00
2022-11-07T08:47:59.204Z,5.50
2022-11-07T08:50:27.903Z,3.70
2022-11-07T08:53:01.207Z,5.30
2022-11-07T08:55:30.190Z,5.70
2022-11-07T08:58:02.341Z,5.00
2022-11-07T09:00:31.129Z,5.70
2022-11-07T09:05:54.103Z,5.60
2022-11-07T09:08:21.243Z,4.90
2022-11-07T09:10:48.505Z,5.50
2022-11-07T09:13:15.873Z,6.10
2022-11-07T09:15:49.317Z,4.70
2022-11-07T09:18:17.697Z,4.60
2022-11-07T09:20:44.892Z,4.50
2022-11-07T09:23:12.159Z,4.30
2022-11-07T09:25:40.113Z,5.30
2022-11-07T09:28:07.371Z,5.20
2022-11-07T09:30:34.736Z,4.50
2022-11-07T09:33:02.401Z,4.90
2022-11-07T09:35:29.835Z,4.60
2022-11-07T09:37:58.335Z,4.90
2022-11-07T09:40:49.424Z,4.00
2022-11-07T09:43:47.598Z,3.60
2022-11-07T09:46:33.928Z,3.50
2022-11-07T09:49:14.082Z,2.60
2022-11-07T09:51:46.757Z,3.60
2022-11-07T09:54:18.027Z,3.50
2022-11-07T09:56:45.437Z,3.10
2022-11-07T09:59:27.536Z,3.80
2022-11-07T10:01:55.234Z,4.40
2022-11-07T10:04:25.188Z,3.20
2022-11-07T10:06:58.301Z,4.90
2022-11-07T10:09:51.985Z,3.90
2022-11-07T10:13:05.335Z,3.20
2022-11-07T10:16:10.139Z,4.20
2022-11-07T10:18:58.912Z,4.20
2022-11-07T10:21:38.136Z,3.70
2022-11-07T10:24:08.456Z,3.50
2022-11-07T10:26:36.792Z,3.60
2022-11-07T10:29:14.840Z,3.80
2022-11-07T10:31:47.189Z,2.80
2022-11-07T10:34:50.116Z,4.20
2022-11-07T10:37:21.460Z,3.40
2022-11-07T10:39:48.911Z,3.70
2022-11-07T10:42:20.638Z,3.60
2022-11-07T10:44:49.140Z,3.10
2022-11-07T10:47:24.298Z,2.80
2022-11-07T10:50:05.555Z,2.40
2022-11-07T10:52:33.027Z,2.00
2022-11-07T10:55:16.414Z,2.00
2022-11-07T10:57:44.614Z,1.70
2022-11-07T11:00:27.236Z,1.90
2022-11-07T11:02:56.656Z,2.60
2022-11-07T11:05:47.343Z,1.70
2022-11-07T11:08:18.720Z,2.30
2022-11-07T11:10:46.914Z,2.80
2022-11-07T11:13:33.273Z,2.60
2022-11-07T11:16:21.831Z,2.70
2022-11-07T11:18:54.407Z,2.50
2022-11-07T11:21:21.834Z,2.50
2022-11-07T11:23:49.936Z,2.60
2022-11-07T11:26:37.540Z,2.70
2022-11-07T11:29:11.443Z,2.90
2022-11-07T11:31:46.405Z,2.70
2022-11-07T11:34:39.433Z,3.40
2022-11-07T11:37:15.018Z,3.50
2022-11-07T11:40:02.815Z,4.00
2022-11-07T11:42:58.534Z,3.60
2022-11-07T11:45:40.855Z,3.20
2022-11-07T11:48:13.117Z,3.70
2022-11-07T11:50:51.954Z,3.90
2022-11-07T11:53:22.062Z,3.60
2022-11-07T11:56:34.670Z,4.40
2022-11-07T11:59:23.559Z,4.30
2022-11-07T12:01:57.460Z,4.50
2022-11-07T12:04:32.895Z,3.60
2022-11-07T12:07:35.553Z,3.80
2022-11-07T12:10:41.923Z,3.40
2022-11-07T12:13:18.632Z,4.40
2022-11-07T12:15:58.138Z,4.50
2022-11-07T12:18:35.444Z,3.80
2022-11-07T12:21:23.784Z,4.30
2022-11-07T12:24:17.460Z,3.30
2022-11-07T12:26:57.862Z,3.80
2022-11-07T12:29:33.599Z,3.80
2022-11-07T12:32:10.635Z,3.60
2022-11-07T12:34:50.419Z,3.60
2022-11-07T12:37:47.648Z,4.20
2022-11-07T12:40:29.972Z,2.90
2022-11-07T12:43:12.548Z,3.30
2022-11-07T12:45:57.001Z,2.80
2022-11-07T12:48:42.699Z,2.80
2022-11-07T12:51:26.744Z,3.50
2022-11-07T12:54:23.689Z,3.30
2022-11-07T12:56:53.737Z,3.80
2022-11-07T12:59:27.813Z,2.80
2022-11-07T13:02:18.408Z,3.10
2022-11-07T13:05:21.613Z,3.60
2022-11-07T13:07:54.306Z,3.10
2022-11-07T13:10:42.426Z,2.50
2022-11-07T13:13:18.307Z,3.10
2022-11-07T13:16:14.153Z,3.40
2022-11-07T13:18:34.869Z,3.20
2022-11-07T13:21:04.299Z,3.30
2022-11-07T13:23:31.973Z,3.00
2022-11-07T13:26:32.506Z,2.90
2022-11-07T13:29:02.211Z,2.90
2022-11-07T13:31:33.281Z,2.80
2022-11-07T13:34:26.085Z,3.50
2022-11-07T13:36:59.755Z,3.70
2022-11-07T13:39:27.065Z,3.40
2022-11-07T13:41:54.725Z,3.60
2022-11-07T13:44:36.024Z,3.50
2022-11-07T13:47:07.061Z,3.00
2022-11-07T13:49:44.207Z,3.10
2022-11-07T13:52:37.491Z,2.50
2022-11-07T13:55:09.258Z,3.60
2022-11-07T13:57:43.760Z,3.50
2022-11-07T14:00:15.103Z,2.40
2022-11-07T14:02:56.723Z,3.60
2022-11-07T14:05:29.829Z,3.40
2022-11-07T14:08:01.693Z,3.60
2022-11-07T14:10:47.438Z,3.40
2022-11-07T14:13:23.293Z,3.10
2022-11-07T14:15:56.212Z,3.60
2022-11-07T14:18:26.884Z,3.30
2022-11-07T14:20:59.099Z,3.20
2022-11-07T14:23:28.635Z,3.70
2022-11-07T14:25:59.156Z,3.40
2022-11-07T14:28:40.191Z,3.40
2022-11-07T14:31:16.047Z,3.50
2022-11-07T14:33:55.587Z,4.10
2022-11-07T14:36:23.876Z,3.80
2022-11-07T14:38:54.100Z,3.90
2022-11-07T14:41:22.993Z,4.10
2022-11-07T14:43:50.542Z,4.00
2022-11-07T14:46:23.827Z,4.10
2022-11-07T14:48:51.998Z,3.70
2022-11-07T14:51:23.259Z,3.50
2022-11-07T14:53:59.937Z,3.70
2022-11-07T14:56:33.846Z,3.70
2022-11-07T14:59:01.280Z,3.30
2022-11-07T15:01:33.784Z,3.70
2022-11-07T15:04:17.820Z,3.60
2022-11-07T15:06:46.828Z,3.30
2022-11-07T15:09:14.451Z,4.10
2022-11-07T15:11:56.958Z,3.60
2022-11-07T15:14:30.067Z,3.90
2022-11-07T15:16:58.957Z,4.10
2022-11-07T15:19:26.897Z,5.10
2022-11-07T15:22:03.553Z,3.60
2022-11-07T15:24:45.492Z,4.00
2022-11-07T15:27:22.964Z,4.30
2022-11-07T15:29:53.151Z,4.10
2022-11-07T15:32:22.746Z,4.60
2022-11-07T15:37:40.031Z,4.10
2022-11-07T15:40:17.364Z,4.10
2022-11-07T15:42:44.566Z,4.10
2022-11-07T15:45:11.823Z,4.20
2022-11-07T15:47:39.591Z,3.90
2022-11-07T15:50:33.262Z,4.60
2022-11-07T15:53:00.420Z,4.80
2022-11-07T15:55:27.659Z,4.20
2022-11-07T15:57:55.119Z,4.50
2022-11-07T16:00:25.163Z,6.70
2022-11-07T16:02:52.804Z,4.60
2022-11-07T16:05:20.359Z,4.90
2022-11-07T16:07:47.696Z,4.30
2022-11-07T16:10:21.342Z,4.40
2022-11-07T16:12:50.201Z,4.80
2022-11-07T16:15:19.965Z,4.90
2022-11-07T16:17:47.480Z,5.20
2022-11-07T16:20:20.427Z,4.80
2022-11-07T16:22:48.612Z,4.40
2022-11-07T16:25:22.388Z,3.80
2022-11-07T16:28:01.342Z,3.90
2022-11-07T16:30:28.714Z,4.50
2022-11-07T16:33:00.879Z,4.80
2022-11-07T16:35:31.241Z,4.90
2022-11-07T16:38:00.037Z,3.70
2022-11-07T16:40:27.559Z,4.80
2022-11-07T16:42:54.936Z,4.50
2022-11-07T16:45:23.299Z,5.00
2022-11-07T16:47:51.043Z,4.90
2022-11-07T16:50:18.402Z,4.70
2022-11-07T16:52:45.659Z,4.90
2022-11-07T16:55:18.029Z,5.30
2022-11-07T16:57:46.822Z,4.90
2022-11-07T17:00:23.409Z,4.60
2022-11-07T17:02:51.927Z,5.50
2022-11-07T17:05:21.172Z,6.40
2022-11-07T17:07:52.012Z,6.40
2022-11-07T17:10:21.601Z,5.30
2022-11-07T17:12:50.739Z,5.50
2022-11-07T17:15:18.676Z,4.70
2022-11-07T17:17:47.682Z,5.10
2022-11-07T17:20:49.425Z,5.10
2022-11-07T17:23:10.012Z,4.30
2022-11-07T17:25:39.512Z,4.70
2022-11-07T17:28:08.430Z,4.90
2022-11-07T17:30:36.209Z,5.40
2022-11-07T17:33:04.410Z,5.30
2022-11-07T17:35:33.861Z,5.90
2022-11-07T17:38:02.029Z,5.60
2022-11-07T17:40:31.660Z,7.50
2022-11-07T17:43:00.735Z,6.30
2022-11-07T17:45:29.019Z,6.00
2022-11-07T17:47:57.080Z,6.60
2022-11-07T17:50:25.563Z,5.20
2022-11-07T17:52:54.724Z,6.30
2022-11-07T17:55:22.932Z,7.10
2022-11-07T17:57:51.007Z,6.80
2022-11-07T18:00:21.969Z,7.20
2022-11-07T18:02:51.234Z,7.40
2022-11-07T18:05:21.348Z,6.90
2022-11-07T18:07:49.336Z,6.80
2022-11-07T18:10:18.013Z,7.10
2022-11-07T18:12:46.091Z,6.60
2022-11-07T18:15:13.603Z,6.20
2022-11-07T18:17:42.395Z,6.40
2022-11-07T18:20:11.593Z,5.90
2022-11-07T18:22:40.064Z,6.70
2022-11-07T18:25:08.389Z,6.80
2022-11-07T18:27:36.787Z,7.10
2022-11-07T18:30:06.365Z,8.10
2022-11-07T18:32:36.480Z,6.40
2022-11-07T18:35:06.475Z,7.20
2022-11-07T18:37:34.906Z,7.60
2022-11-07T18:40:03.607Z,7.40
2022-11-07T18:42:32.523Z,7.40
2022-11-07T18:45:00.678Z,7.00
2022-11-07T18:47:30.055Z,6.80
2022-11-07T18:49:58.177Z,6.50
2022-11-07T18:52:25.898Z,7.20
2022-11-07T18:54:53.850Z,7.10
2022-11-07T18:57:22.473Z,6.80
2022-11-07T18:59:50.929Z,7.30
2022-11-07T19:02:19.470Z,8.00
2022-11-07T19:04:47.991Z,7.80
2022-11-07T19:07:16.147Z,7.90
2022-11-07T19:09:44.234Z,7.50
2022-11-07T19:12:12.823Z,8.50
2022-11-07T19:14:41.487Z,8.10
2022-11-07T19:17:09.658Z,7.30
2022-11-07T19:19:38.169Z,8.50
2022-11-07T19:22:06.819Z,7.70
2022-11-07T19:24:37.478Z,7.70
2022-11-07T19:27:05.436Z,9.00
2022-11-07T19:29:33.740Z,7.40
2022-11-07T19:32:02.348Z,8.30
2022-11-07T19:34:29.749Z,7.80
2022-11-07T19:36:57.851Z,8.00
2022-11-07T19:39:26.927Z,7.40
2022-11-07T19:41:56.898Z,7.80
2022-11-07T19:44:25.361Z,8.00
2022-11-07T19:46:53.377Z,8.60
2022-11-07T19:49:25.837Z,7.30
2022-11-07T19:51:53.815Z,7.80
2022-11-07T19:54:22.232Z,7.70
2022-11-07T19:56:57.211Z,7.70
2022-11-07T19:59:26.412Z,7.40
2022-11-07T20:02:17.850Z,7.80
2022-11-07T20:04:42.372Z,7.10
2022-11-07T20:07:11.393Z,6.60
2022-11-07T20:09:39.131Z,7.10
2022-11-07T20:12:08.341Z,7.10
2022-11-07T20:14:38.838Z,7.50
2022-11-07T20:17:07.181Z,7.70
2022-11-07T20:19:35.465Z,7.30
2022-11-07T20:22:03.540Z,8.10
2022-11-07T20:24:33.243Z,11.10
2022-11-07T20:27:00.846Z,10.00
2022-11-07T20:29:30.709Z,8.70
2022-11-07T20:32:00.484Z,8.80
2022-11-07T20:34:28.820Z,8.80
2022-11-07T20:36:58.417Z,8.10
2022-11-07T20:39:26.699Z,7.90
2022-11-07T20:41:55.399Z,6.80
2022-11-07T20:44:26.215Z,8.10
2022-11-07T20:46:54.398Z,6.60
2022-11-07T20:49:22.719Z,7.70
2022-11-07T20:51:53.407Z,7.40
2022-11-07T20:54:21.624Z,8.10
2022-11-07T20:56:57.312Z,7.60
2022-11-07T20:59:25.377Z,7.80
2022-11-07T21:01:56.536Z,6.60
2022-11-07T21:04:28.051Z,7.70
2022-11-07T21:06:55.868Z,7.40
2022-11-07T21:09:24.751Z,7.10
2022-11-07T21:11:52.519Z,5.90
2022-11-07T21:14:20.159Z,7.50
2022-11-07T21:16:48.371Z,7.90
2022-11-07T21:19:17.030Z,7.80
2022-11-07T21:21:45.818Z,7.20
2022-11-07T21:24:13.159Z,8.00
2022-11-07T21:26:41.337Z,6.40
2022-11-07T21:29:10.137Z,7.60
2022-11-07T21:31:39.894Z,7.60
2022-11-07T21:34:10.559Z,7.50
2022-11-07T21:36:37.971Z,7.20
2022-11-07T21:39:08.159Z,7.10
2022-11-07T21:41:37.538Z,6.90
2022-11-07T21:44:05.213Z,7.40
2022-11-07T21:46:34.606Z,6.80
2022-11-07T21:49:03.288Z,6.70
2022-11-07T21:51:32.180Z,7.60
2022-11-07T21:54:00.355Z,6.90
2022-11-07T21:56:30.078Z,7.30
2022-11-07T21:58:59.671Z,8.00
2022-11-07T22:01:28.101Z,6.40
2022-11-07T22:04:05.984Z,7.00
2022-11-07T22:06:35.168Z,5.50
2022-11-07T22:09:03.126Z,6.40
2022-11-07T22:11:30.466Z,5.90
2022-11-07T22:13:57.828Z,6.90
2022-11-07T22:16:25.454Z,7.00
2022-11-07T22:18:53.671Z,12.30
2022-11-07T22:21:22.804Z,7.20
2022-11-07T22:23:50.965Z,7.70
2022-11-07T22:26:21.655Z,6.20
2022-11-07T22:28:49.543Z,6.60
2022-11-07T22:31:23.273Z,6.30
2022-11-07T22:33:51.717Z,5.90
2022-11-07T22:36:19.398Z,6.10
2022-11-07T22:38:46.939Z,6.30
2022-11-07T22:41:19.312Z,6.90
2022-11-07T22:43:47.355Z,6.20
2022-11-07T22:46:17.287Z,6.70
2022-11-07T22:48:45.974Z,6.50
2022-11-07T22:51:16.579Z,6.10
2022-11-07T22:53:43.878Z,5.70
2022-11-07T22:56:20.338Z,5.80
2022-11-07T22:58:48.438Z,6.40
2022-11-07T23:01:21.086Z,5.90
2022-11-07T23:03:49.059Z,6.00
2022-11-07T23:06:17.839Z,6.60
2022-11-07T23:08:45.819Z,5.80
2022-11-07T23:11:49.021Z,4.70
2022-11-07T23:14:18.799Z,4.60
2022-11-07T23:16:53.856Z,5.40
2022-11-07T23:19:23.463Z,5.30
2022-11-07T23:21:53.010Z,5.10
2022-11-07T23:24:21.022Z,5.20
2022-11-07T23:26:48.587Z,5.40
2022-11-07T23:29:21.826Z,5.20
2022-11-07T23:31:50.179Z,5.80
2022-11-07T23:34:19.504Z,5.90
2022-11-07T23:36:51.393Z,5.70
2022-11-07T23:39:21.540Z,6.50
2022-11-07T23:41:50.015Z,6.10
2022-11-07T23:44:18.166Z,5.70
2022-11-07T23:47:06.439Z,6.10
2022-11-07T23:49:53.156Z,6.60
2022-11-07T23:52:21.411Z,6.60
2022-11-07T23:55:07.957Z,6.10
2022-11-07T23:57:57.101Z,5.10
